Terminal Aerodrome Forecast
Issued by NWS Rapid City, SD

Home | Current Version | Previous Version | Text Only | Print | Product List | Glossary Off
Versions: 1 2 3 4 5 6 7 8 9 10 11 12 13 14 15 16 17 18 19 20

000
FTUS43 KUNR 170700 AAA
TAFRAP
TAF AMD
KRAP 170750Z 1708/1806 13010KT 5SM BR OVC003
     FM171400 12009KT P6SM OVC005
     FM171800 12011KT P6SM OVC008=

USA.gov is the U.S. government's official web portal to all federal, state and local government web resources and services.